Time;durP1;ratioP1;P1;durP2;ratioP2;P2;SDS_P1;SDS_P2;PMS_P1;PMS_P2;Temp;Humidity;BMP_temperature;BMP_pressure;BME280_temperature;BME280_humidity;BME280_pressure;Samples;Min_cycle;Max_cycle;Signal;HPM_P1;HPM_P2
2021/01/13 03:47:51;;;;;;;11.18;6.40;;;;;;;0.90;78.90;96644.78;5117746;23;20092;-81
2021/01/13 03:50:25;;;;;;;10.68;7.05;;;;;;;0.90;79.41;96649.09;4881284;29;20076;-81
2021/01/13 03:52:59;;;;;;;14.77;8.18;;;;;;;0.88;79.07;96645.84;4877339;29;20042;-81
2021/01/13 03:55:31;;;;;;;13.05;7.55;;;;;;;0.88;79.09;96643.28;4876247;29;20080;-81
2021/01/13 03:58:31;;;;;;;11.13;6.82;;;;;;;0.86;78.72;96647.72;4876037;29;20564;-81
2021/01/13 04:01:36;;;;;;;14.52;7.80;;;;;;;0.86;78.75;96643.38;4876362;29;20469;-80
2021/01/13 04:04:20;;;;;;;13.07;6.80;;;;;;;0.85;79.09;96657.16;4872797;29;20061;-80
2021/01/13 04:06:59;;;;;;;10.48;7.15;;;;;;;0.84;79.64;96659.84;4873170;29;20069;-81
2021/01/13 04:09:30;;;;;;;15.43;8.73;;;;;;;0.81;79.59;96666.06;4877028;29;20043;-81
2021/01/13 04:12:11;;;;;;;14.57;8.10;;;;;;;0.78;79.79;96661.94;4884729;29;20033;-81
2021/01/13 04:14:57;;;;;;;11.93;8.30;;;;;;;0.74;79.32;96665.69;4884601;29;20064;-81
2021/01/13 04:17:28;;;;;;;13.98;8.38;;;;;;;0.69;79.53;96667.81;4884205;29;20045;-81
2021/01/13 04:19:59;;;;;;;13.48;8.13;;;;;;;0.65;79.47;96666.41;4884394;29;20058;-81
2021/01/13 04:22:30;;;;;;;15.90;8.23;;;;;;;0.63;79.42;96667.47;4884020;29;20049;-80
2021/01/13 04:24:59;;;;;;;;;;;;;;;0.61;79.77;96660.72;4884993;29;20057;-80
2021/01/13 04:27:28;;;;;;;12.60;7.45;;;;;;;0.59;79.87;96664.31;4884465;29;19940;-81
2021/01/13 04:29:56;;;;;;;11.90;6.57;;;;;;;0.56;79.79;96667.13;4883937;29;20125;-81
2021/01/13 04:32:25;;;;;;;16.83;8.23;;;;;;;0.54;79.60;96666.41;4883838;29;20045;-80
2021/01/13 04:34:55;;;;;;;11.75;7.57;;;;;;;0.53;79.79;96669.94;4884068;29;20064;-80
2021/01/13 04:37:28;;;;;;;13.70;8.50;;;;;;;0.51;79.46;96664.09;4884004;29;20050;-81
2021/01/13 04:39:56;;;;;;;11.90;6.07;;;;;;;0.50;79.77;96665.81;4882037;29;20057;-81
2021/01/13 04:42:30;;;;;;;12.13;7.13;;;;;;;0.49;79.27;96676.22;4873089;29;20073;-81
2021/01/13 04:45:08;;;;;;;11.07;7.47;;;;;;;0.49;79.24;96676.22;4869857;29;20544;-80
2021/01/13 04:47:51;;;;;;;14.45;7.35;;;;;;;0.48;79.21;96680.56;4869646;29;20054;-80
2021/01/13 04:50:20;;;;;;;11.88;8.65;;;;;;;0.49;79.07;96676.22;4869180;29;20080;-80
2021/01/13 04:52:50;;;;;;;10.93;7.60;;;;;;;0.48;79.12;96685.69;4866781;29;20046;-81
2021/01/13 04:55:32;;;;;;;12.43;8.13;;;;;;;0.49;79.25;96683.94;4866616;29;20508;-81
2021/01/13 04:58:40;;;;;;;14.73;7.93;;;;;;;0.47;78.81;96686.59;4865752;29;20144;-80
2021/01/13 05:01:35;;;;;;;14.52;7.43;;;;;;;0.45;79.06;96685.09;4865351;29;20285;-81
2021/01/13 05:04:20;;;;;;;11.70;7.13;;;;;;;0.44;79.24;96691.13;4865269;29;20057;-81
2021/01/13 05:06:48;;;;;;;11.95;7.57;;;;;;;0.41;79.17;96699.88;4865484;29;20056;-81
2021/01/13 05:09:18;;;;;;;12.40;7.57;;;;;;;0.39;79.27;96694.91;4865693;29;20416;-80
2021/01/13 05:11:48;;;;;;;11.48;7.70;;;;;;;0.38;79.29;96700.13;4865477;29;20061;-81
2021/01/13 05:14:17;;;;;;;12.93;7.10;;;;;;;0.37;79.42;96707.03;4864974;29;20060;-81
2021/01/13 05:17:04;;;;;;;11.75;7.20;;;;;;;0.35;79.28;96711.47;4866055;29;20073;-81
2021/01/13 05:20:15;;;;;;;13.82;8.35;;;;;;;0.36;79.27;96709.69;4869475;29;20072;-80
2021/01/13 05:22:45;;;;;;;11.35;7.60;;;;;;;0.34;78.78;96709.81;4869847;29;20509;-80
2021/01/13 05:25:15;;;;;;;15.38;7.88;;;;;;;0.34;78.92;96709.81;4869841;29;20056;-81
2021/01/13 05:28:04;;;;;;;11.90;8.15;;;;;;;0.34;79.27;96712.38;4869744;29;20053;-80
2021/01/13 05:30:33;;;;;;;14.90;6.60;;;;;;;0.35;78.95;96721.72;4869307;29;20053;-81
2021/01/13 05:33:11;;;;;;;10.15;7.47;;;;;;;0.34;79.27;96720.06;4871026;29;20056;-80
2021/01/13 05:35:41;;;;;;;14.65;8.73;;;;;;;0.35;79.18;96714.03;4871086;29;20053;-80
2021/01/13 05:38:12;;;;;;;13.40;7.07;;;;;;;0.33;79.30;96708.19;4881399;29;20046;-81
2021/01/13 05:40:43;;;;;;;16.65;8.65;;;;;;;0.34;78.90;96719.25;4872265;29;20057;-80
2021/01/13 05:43:11;;;;;;;12.50;7.15;;;;;;;0.33;79.32;96710.75;4871869;29;20053;-81
2021/01/13 05:45:40;;;;;;;13.27;7.95;;;;;;;0.32;79.00;96706.53;4869862;29;20057;-80
2021/01/13 05:48:26;;;;;;;12.57;7.97;;;;;;;0.30;79.22;96708.41;4869880;29;20539;-80
2021/01/13 05:50:56;;;;;;;11.60;8.73;;;;;;;0.28;79.15;96702.56;4871079;29;20077;-81
2021/01/13 05:53:27;;;;;;;15.50;8.15;;;;;;;0.27;79.44;96700.13;4869787;29;20063;-80
2021/01/13 05:55:56;;;;;;;14.55;8.98;;;;;;;0.25;79.66;96702.00;4869421;29;20075;-80
2021/01/13 05:58:26;;;;;;;13.18;8.93;;;;;;;0.24;79.82;96698.63;4869705;29;20461;-81
2021/01/13 06:00:55;;;;;;;14.15;8.60;;;;;;;0.23;79.55;96698.72;4869767;29;20057;-80
2021/01/13 06:03:36;;;;;;;17.80;8.63;;;;;;;0.21;79.18;96698.84;4865666;29;20072;-80
2021/01/13 06:06:05;;;;;;;17.02;9.55;;;;;;;0.20;79.53;96708.28;4868911;29;20065;-80
2021/01/13 06:08:33;;;;;;;15.57;9.15;;;;;;;0.21;79.50;96703.97;4868703;29;20541;-81
2021/01/13 06:11:03;;;;;;;14.48;8.32;;;;;;;0.21;79.43;96701.41;4866492;29;20056;-80
2021/01/13 06:13:32;;;;;;;12.88;8.52;;;;;;;0.18;79.31;96701.63;4871087;29;20088;-80
2021/01/13 06:16:02;;;;;;;14.88;9.40;;;;;;;0.16;79.31;96706.06;4879378;29;20045;-80
2021/01/13 06:18:31;;;;;;;18.00;9.93;;;;;;;0.15;79.52;96704.41;4867623;29;20485;-80
2021/01/13 06:20:59;;;;;;;23.55;11.60;;;;;;;0.14;79.15;96706.16;4867506;29;20154;-80
2021/01/13 06:23:28;;;;;;;14.65;9.10;;;;;;;0.14;79.70;96697.66;4866958;29;20080;-80
2021/01/13 06:25:56;;;;;;;17.52;9.13;;;;;;;0.14;79.52;96702.78;4866164;29;20499;-80
2021/01/13 06:29:12;;;;;;;12.35;7.68;;;;;;;0.14;80.11;96713.88;4866564;29;20533;-80
2021/01/13 06:31:43;;;;;;;12.02;6.78;;;;;;;0.13;79.80;96707.13;4865745;29;20058;-80
2021/01/13 06:34:28;;;;;;;12.77;8.30;;;;;;;0.14;79.61;96707.94;4866871;29;20511;-80
2021/01/13 06:37:20;;;;;;;20.33;9.15;;;;;;;0.13;78.96;96708.84;4867423;29;20501;-80
2021/01/13 06:39:47;;;;;;;13.48;9.15;;;;;;;0.09;78.98;96710.00;4868985;29;20048;-80
2021/01/13 06:42:14;;;;;;;17.67;10.13;;;;;;;0.03;78.54;96707.91;4870672;29;20065;-82
2021/01/13 06:44:44;;;;;;;20.42;9.05;;;;;;;-0.03;78.25;96709.97;4872303;29;20519;-80
2021/01/13 06:47:12;;;;;;;15.55;7.97;;;;;;;-0.05;78.73;96704.13;4864063;29;20057;-80
2021/01/13 06:49:39;;;;;;;17.15;8.75;;;;;;;-0.05;78.64;96708.47;4864072;29;20058;-80
2021/01/13 06:52:08;;;;;;;13.70;7.80;;;;;;;-0.06;78.94;96707.66;4865861;29;20125;-79
2021/01/13 06:54:44;;;;;;;13.30;7.88;;;;;;;-0.04;79.01;96705.78;4864960;29;20052;-80
2021/01/13 06:57:12;;;;;;;11.48;6.50;;;;;;;-0.03;79.10;96704.03;4862883;29;20424;-80
2021/01/13 06:59:39;;;;;;;12.90;7.15;;;;;;;-0.01;79.04;96709.88;4868292;29;20100;-80
2021/01/13 07:02:10;;;;;;;12.13;6.50;;;;;;;0.00;79.41;96711.53;4873592;29;20495;-80
2021/01/13 07:10:01;;;;;;;11.15;7.45;;;;;;;0.06;80.07;96725.63;4919385;23;20057;-79
2021/01/13 09:47:24;;;;;;;8.73;6.95;;;;;;;1.27;78.39;96820.91;4263832;23;20299;-85
2021/01/13 09:49:55;;;;;;;9.55;6.68;;;;;;;1.31;78.83;96822.31;4871347;29;20057;-89
2021/01/13 09:52:23;;;;;;;10.48;6.53;;;;;;;1.37;79.19;96827.00;4874376;29;20120;-86
2021/01/13 09:54:52;;;;;;;8.27;6.82;;;;;;;1.42;79.00;96827.44;4874385;29;20420;-84
2021/01/13 09:57:19;;;;;;;8.63;6.05;;;;;;;1.47;78.37;96832.25;4873019;29;20052;-84
2021/01/13 09:59:59;;;;;;;9.45;5.35;;;;;;;1.51;77.92;96829.31;4873800;29;20071;-88
2021/01/13 10:02:27;;;;;;;10.88;6.15;;;;;;;1.56;78.17;96827.19;4876184;29;20064;-88
2021/01/13 10:04:55;;;;;;;11.05;6.63;;;;;;;1.62;78.28;96826.72;4877244;29;20061;-88
2021/01/13 10:07:24;;;;;;;9.27;5.57;;;;;;;1.70;78.03;96820.16;4877931;29;20121;-88
2021/01/13 10:09:51;;;;;;;8.07;5.50;;;;;;;1.77;77.81;96823.88;4880893;29;20069;-88
2021/01/13 10:12:18;;;;;;;10.55;6.25;;;;;;;1.84;77.65;96815.56;4878311;29;20061;-91
2021/01/13 10:15:08;;;;;;;10.75;6.00;;;;;;;1.93;77.18;96823.50;4877614;29;20053;-83
2021/01/13 10:17:36;;;;;;;10.68;6.18;;;;;;;1.99;77.06;96817.81;4876431;29;20105;-88
2021/01/13 10:20:15;;;;;;;9.02;6.00;;;;;;;2.05;76.39;96812.19;4875580;29;20057;-88
2021/01/13 10:22:43;;;;;;;8.48;5.15;;;;;;;2.11;76.79;96806.56;4875973;29;20054;-86
2021/01/13 10:25:11;;;;;;;6.38;4.75;;;;;;;2.14;76.00;96806.31;4874507;29;20049;-88
2021/01/13 10:27:42;;;;;;;7.78;5.95;;;;;;;2.20;75.79;96808.38;4873484;29;20091;-89
2021/01/13 10:30:12;;;;;;;7.97;5.40;;;;;;;2.26;75.31;96805.31;4873423;29;20080;-90
2021/01/13 10:32:52;;;;;;;8.50;5.32;;;;;;;2.33;75.35;96802.25;4873045;29;20120;-87
2021/01/13 10:35:25;;;;;;;7.00;5.88;;;;;;;2.45;75.02;96803.81;4872242;29;20128;-88
2021/01/13 10:37:54;;;;;;;8.88;5.10;;;;;;;2.55;74.77;96793.56;4872519;29;20083;-86
2021/01/13 10:40:24;;;;;;;9.05;5.38;;;;;;;2.64;74.26;96797.97;4872961;29;20535;-90
2021/01/13 10:42:53;;;;;;;7.40;4.75;;;;;;;2.69;74.07;96795.84;4873269;29;20081;-84
2021/01/13 10:45:23;;;;;;;6.78;4.60;;;;;;;2.73;74.31;96781.72;4872431;29;20144;-85
2021/01/13 10:47:55;;;;;;;5.45;4.65;;;;;;;2.78;73.53;96779.59;4872301;29;20084;-91
2021/01/13 10:50:26;;;;;;;9.23;4.75;;;;;;;2.89;73.15;96776.94;4870230;29;20068;-88
2021/01/13 10:55:50;;;;;;;6.95;4.85;;;;;;;3.34;72.86;96769.75;4870753;29;20052;-87
2021/01/13 10:58:32;;;;;;;7.47;4.70;;;;;;;3.54;72.41;96776.56;4870980;29;20136;-86
2021/01/13 11:01:09;;;;;;;6.60;4.32;;;;;;;3.76;71.11;96774.69;4868670;29;20060;-84
2021/01/13 11:03:36;;;;;;;6.10;4.32;;;;;;;3.92;71.07;96775.00;4869315;29;20057;-87
2021/01/13 11:06:05;;;;;;;8.43;4.60;;;;;;;3.93;70.49;96771.44;4869460;29;20053;-83
2021/01/13 11:08:36;;;;;;;6.28;4.50;;;;;;;3.89;70.54;96770.06;4868070;29;20050;-84
2021/01/13 11:11:07;;;;;;;11.57;4.82;;;;;;;3.82;69.75;96763.84;4866923;29;20056;-85
2021/01/13 11:13:53;;;;;;;9.98;4.40;;;;;;;3.75;69.48;96757.59;4867656;29;20049;-83
2021/01/13 11:16:22;;;;;;;6.60;4.43;;;;;;;3.68;70.67;96752.16;4866868;29;20062;-87
2021/01/13 11:18:55;;;;;;;6.75;4.30;;;;;;;3.63;71.10;96755.16;4869320;29;20137;-77
2021/01/13 11:21:26;;;;;;;6.03;4.60;;;;;;;3.58;70.28;96757.28;4870515;29;20056;-86
2021/01/13 11:23:59;;;;;;;7.50;4.20;;;;;;;3.53;70.24;96759.47;4874632;29;20153;-88
2021/01/13 11:26:44;;;;;;;7.50;5.00;;;;;;;3.49;70.38;96746.03;4867526;29;20058;-85
2021/01/13 11:29:18;;;;;;;5.68;4.22;;;;;;;3.44;70.59;96745.63;4865912;29;20105;-84
2021/01/13 11:31:46;;;;;;;6.35;4.32;;;;;;;3.39;69.82;96746.94;4876397;29;20100;-82
2021/01/13 11:34:20;;;;;;;7.65;4.32;;;;;;;3.32;70.64;96740.69;4881124;29;20057;-91
2021/01/13 11:37:16;;;;;;;7.65;5.35;;;;;;;3.27;70.19;96744.50;4881592;29;20085;-88
2021/01/13 11:39:46;;;;;;;6.72;4.18;;;;;;;3.21;70.51;96737.28;4880271;29;20053;-87
2021/01/13 11:42:59;;;;;;;6.93;5.43;;;;;;;3.15;70.73;96743.00;4878575;29;20057;-89
2021/01/13 11:45:35;;;;;;;6.38;3.95;;;;;;;3.07;71.23;96743.63;4875372;29;20303;-87
2021/01/13 11:48:15;;;;;;;6.22;5.03;;;;;;;3.04;71.11;96732.75;4873640;29;20053;-90
2021/01/13 11:51:11;;;;;;;7.28;4.50;;;;;;;2.98;71.01;96728.16;4873550;29;20058;-89
2021/01/13 11:53:45;;;;;;;8.30;5.38;;;;;;;2.93;71.21;96731.13;4872890;29;20061;-88
2021/01/13 11:56:12;;;;;;;6.82;4.47;;;;;;;2.88;71.21;96738.41;4880855;29;20049;-90
2021/01/13 11:58:45;;;;;;;9.18;4.82;;;;;;;2.83;71.31;96735.41;4881646;29;20050;-88
2021/01/13 12:01:12;;;;;;;5.65;4.40;;;;;;;2.80;71.51;96728.78;4878324;29;20068;-89
2021/01/13 12:03:42;;;;;;;7.53;4.82;;;;;;;2.77;71.32;96718.72;4874861;29;20057;-89
2021/01/13 12:06:14;;;;;;;7.90;5.30;;;;;;;2.76;71.74;96713.72;4873384;29;20531;-87
2021/01/13 12:08:42;;;;;;;5.97;4.32;;;;;;;2.74;72.08;96718.97;4872375;29;20057;-87
2021/01/13 12:11:11;;;;;;;7.35;4.75;;;;;;;2.73;72.42;96712.19;4872236;29;20046;-87
2021/01/13 12:13:44;;;;;;;7.53;4.55;;;;;;;2.70;71.78;96704.72;4872474;29;20064;-88
2021/01/13 12:16:16;;;;;;;8.75;4.07;;;;;;;2.64;71.62;96718.13;4871485;29;20109;-86
2021/01/13 12:18:47;;;;;;;7.85;4.50;;;;;;;2.60;72.17;96714.16;4870826;29;20118;-87
2021/01/13 12:21:31;;;;;;;7.53;4.70;;;;;;;2.56;71.55;96711.06;4870479;29;20088;-89
2021/01/13 12:24:23;;;;;;;4.65;4.13;;;;;;;2.52;72.02;96699.38;4870008;29;20068;-88
2021/01/13 12:26:49;;;;;;;8.05;5.45;;;;;;;2.51;72.54;96699.50;4871033;29;20118;-88
2021/01/13 12:29:22;;;;;;;5.70;4.65;;;;;;;2.50;72.51;96692.72;4874122;29;20531;-86
2021/01/13 12:31:50;;;;;;;10.77;5.22;;;;;;;2.45;72.37;96675.91;4873856;29;20057;-86
2021/01/13 12:34:21;;;;;;;9.90;4.65;;;;;;;2.43;72.12;96671.84;4874674;29;20061;-85
2021/01/13 12:36:49;;;;;;;11.25;5.32;;;;;;;2.42;72.57;96673.56;4873296;29;20064;-87
2021/01/13 12:39:24;;;;;;;7.03;4.40;;;;;;;2.39;72.82;96668.69;4872577;29;20045;-81
2021/01/13 12:41:51;;;;;;;7.95;4.45;;;;;;;2.35;72.37;96669.06;4871202;29;20144;-83
2021/01/13 12:44:19;;;;;;;6.57;4.25;;;;;;;2.31;72.40;96662.56;4871415;29;20072;-82
2021/01/13 12:46:51;;;;;;;8.30;4.95;;;;;;;2.30;72.67;96661.75;4871019;29;20084;-82
2021/01/13 12:49:18;;;;;;;5.13;4.60;;;;;;;2.27;73.02;96651.69;4871880;29;20054;-82
2021/01/13 12:51:50;;;;;;;7.80;4.35;;;;;;;2.26;73.10;96650.06;4872038;29;20132;-81
2021/01/13 12:54:17;;;;;;;7.88;4.20;;;;;;;2.25;73.24;96644.13;4871190;29;20060;-88
2021/01/13 12:56:45;;;;;;;7.43;4.57;;;;;;;2.25;73.40;96640.69;4870439;29;20053;-83
2021/01/13 12:59:12;;;;;;;7.53;4.68;;;;;;;2.25;73.03;96640.69;4870885;29;20054;-85
2021/01/13 13:01:41;;;;;;;6.85;4.25;;;;;;;2.22;73.04;96636.63;4872087;29;20068;-83
2021/01/13 13:04:08;;;;;;;7.82;4.45;;;;;;;2.21;73.00;96641.94;4871492;29;20053;-84
2021/01/13 13:06:36;;;;;;;10.30;5.18;;;;;;;2.20;73.35;96635.94;4870557;29;20054;-83
2021/01/13 13:09:07;;;;;;;10.57;5.25;;;;;;;2.20;73.53;96641.09;4869187;29;20069;-88
2021/01/13 13:11:34;;;;;;;9.98;4.80;;;;;;;2.20;73.47;96640.28;4870672;29;20061;-87
2021/01/13 13:14:12;;;;;;;8.32;5.10;;;;;;;2.17;73.87;96631.06;4878064;29;20083;-88
2021/01/13 13:16:50;;;;;;;6.20;4.88;;;;;;;2.15;74.16;96632.16;4878181;29;20061;-90
2021/01/13 13:19:25;;;;;;;7.03;4.60;;;;;;;2.11;74.58;96636.72;4877455;29;20054;-88
2021/01/13 13:22:00;;;;;;;13.10;6.82;;;;;;;2.05;74.90;96635.47;4877622;29;20053;-89
2021/01/13 13:24:27;;;;;;;13.32;6.07;;;;;;;2.02;75.47;96633.16;4879591;29;20053;-88
2021/01/13 13:26:56;;;;;;;9.32;5.57;;;;;;;1.96;75.50;96628.50;4879775;29;20518;-88
2021/01/13 13:29:24;;;;;;;7.28;4.85;;;;;;;1.92;75.71;96628.91;4877266;29;20531;-90
2021/01/13 13:31:51;;;;;;;7.32;5.10;;;;;;;1.86;75.69;96622.53;4876700;29;20077;-85
2021/01/13 13:34:18;;;;;;;8.27;5.43;;;;;;;1.83;75.27;96625.34;4876638;29;20078;-89
2021/01/13 13:36:57;;;;;;;7.68;5.05;;;;;;;1.81;75.48;96629.78;4876212;29;20080;-89
2021/01/13 13:39:33;;;;;;;7.30;5.18;;;;;;;1.80;76.15;96631.53;4876630;29;20113;-88
2021/01/13 13:42:01;;;;;;;8.88;5.38;;;;;;;1.82;76.32;96631.44;4876312;29;20057;-85
2021/01/13 13:44:31;;;;;;;7.13;5.45;;;;;;;1.83;76.40;96627.91;4876147;29;20057;-88
2021/01/13 13:46:58;;;;;;;7.70;5.18;;;;;;;1.83;76.02;96630.47;4877470;29;20073;-85
2021/01/13 13:49:25;;;;;;;12.25;6.13;;;;;;;1.82;76.12;96631.44;4876526;29;20148;-85
2021/01/13 13:51:51;;;;;;;7.30;4.60;;;;;;;1.83;76.49;96623.56;4875279;29;20057;-85
2021/01/13 13:54:18;;;;;;;7.25;4.60;;;;;;;1.85;76.38;96620.88;4875789;29;20117;-89
2021/01/13 13:56:45;;;;;;;13.32;4.93;;;;;;;1.86;76.25;96625.09;4875548;29;20110;-85
2021/01/13 13:59:12;;;;;;;10.75;4.97;;;;;;;1.87;76.30;96615.63;4875306;29;20053;-86
2021/01/13 14:01:42;;;;;;;6.72;4.53;;;;;;;1.88;76.48;96615.50;4873408;29;20136;-89
2021/01/13 14:04:17;;;;;;;8.77;3.90;;;;;;;1.91;75.62;96614.41;4873463;29;20056;-88
2021/01/13 14:06:51;;;;;;;7.80;4.53;;;;;;;1.94;75.96;96614.16;4884812;29;20079;-85
2021/01/13 14:09:20;;;;;;;8.55;3.72;;;;;;;1.98;75.74;96611.19;4885466;29;20041;-88
2021/01/13 14:11:54;;;;;;;4.35;3.38;;;;;;;2.04;75.74;96605.53;4885036;29;20033;-91
2021/01/13 14:14:35;;;;;;;6.38;3.75;;;;;;;2.08;75.58;96606.13;4878488;29;20033;-91
2021/01/13 14:17:07;;;;;;;4.22;3.13;;;;;;;2.10;74.99;96609.38;4878483;29;20064;-90
2021/01/13 14:19:40;;;;;;;5.85;3.78;;;;;;;2.13;75.11;96595.44;4876076;29;20053;-89
2021/01/13 14:22:20;;;;;;;6.35;4.05;;;;;;;2.14;74.95;96591.91;4875330;29;20061;-85
2021/01/13 14:24:54;;;;;;;5.78;3.67;;;;;;;2.15;75.38;96591.78;4875501;29;20152;-91
2021/01/13 14:27:36;;;;;;;10.30;5.00;;;;;;;2.18;75.31;96595.84;4874195;29;20069;-86
2021/01/13 14:30:20;;;;;;;4.88;4.13;;;;;;;2.19;75.23;96584.63;4873604;29;20078;-88
2021/01/13 14:33:01;;;;;;;5.72;3.72;;;;;;;2.19;75.54;96588.00;4874055;29;20058;-85
2021/01/13 14:35:29;;;;;;;7.28;4.00;;;;;;;2.20;75.36;96574.19;4873607;29;20081;-87
2021/01/13 14:38:08;;;;;;;6.53;4.20;;;;;;;2.22;74.97;96576.63;4873220;29;20050;-87
2021/01/13 14:40:40;;;;;;;5.68;4.35;;;;;;;2.25;75.63;96579.78;4875210;29;20061;-89
2021/01/13 14:43:08;;;;;;;7.35;3.53;;;;;;;2.27;75.26;96574.47;4873325;29;20053;-88
2021/01/13 14:45:38;;;;;;;8.15;4.13;;;;;;;2.29;74.60;96562.28;4873683;29;20053;-88
2021/01/13 14:48:13;;;;;;;7.05;3.78;;;;;;;2.30;74.55;96563.94;4872634;29;20056;-85
2021/01/13 14:50:46;;;;;;;6.40;3.70;;;;;;;2.31;74.69;96567.31;4872168;29;20054;-82
2021/01/13 14:53:13;;;;;;;5.78;4.28;;;;;;;2.32;74.74;96572.34;4870267;29;20124;-88
2021/01/13 14:55:40;;;;;;;5.00;3.53;;;;;;;2.32;74.42;96562.03;4868369;29;20088;-83
2021/01/13 14:58:09;;;;;;;6.35;3.85;;;;;;;2.33;74.84;96555.94;4868512;29;20078;-85
2021/01/13 15:00:41;;;;;;;6.95;3.65;;;;;;;2.36;74.55;96557.44;4872330;29;20054;-89
2021/01/13 15:03:15;;;;;;;6.97;3.67;;;;;;;2.35;74.28;96559.19;4872982;29;20061;-89
2021/01/13 15:05:54;;;;;;;4.47;3.40;;;;;;;2.36;74.10;96552.28;4880052;29;20060;-87
2021/01/13 15:08:28;;;;;;;6.65;3.03;;;;;;;2.34;74.29;96547.28;4889510;29;20053;-86
2021/01/13 15:11:06;;;;;;;6.40;3.03;;;;;;;2.33;73.50;96545.63;4889803;29;20053;-87
2021/01/13 15:13:42;;;;;;;5.22;3.60;;;;;;;2.33;73.80;96537.09;4889523;29;20092;-86
2021/01/13 15:16:15;;;;;;;5.28;2.85;;;;;;;2.31;74.53;96537.22;4888266;29;20083;-87
2021/01/13 15:18:50;;;;;;;6.15;3.90;;;;;;;2.32;73.97;96531.16;4888109;29;20049;-83
2021/01/13 15:21:26;;;;;;;5.70;2.80;;;;;;;2.32;73.81;96536.31;4888433;29;20053;-85
2021/01/13 15:24:06;;;;;;;5.20;2.97;;;;;;;2.31;73.51;96536.44;4886731;29;20061;-82
2021/01/13 15:26:33;;;;;;;4.10;3.20;;;;;;;2.29;73.72;96533.97;4887343;29;20072;-82
2021/01/13 15:29:00;;;;;;;7.70;3.85;;;;;;;2.25;73.63;96518.00;4885256;29;20057;-81
2021/01/13 15:31:27;;;;;;;5.35;3.30;;;;;;;2.24;73.64;96523.28;4887668;29;20081;-87
2021/01/13 15:33:54;;;;;;;6.88;3.45;;;;;;;2.23;73.64;96511.34;4893148;29;20081;-86
2021/01/13 15:36:26;;;;;;;6.78;3.40;;;;;;;2.21;73.42;96508.09;4892831;29;20052;-87
2021/01/13 15:38:53;;;;;;;5.47;3.00;;;;;;;2.20;73.48;96512.41;4893981;29;20049;-78
2021/01/13 15:41:20;;;;;;;3.42;2.50;;;;;;;2.19;73.31;96510.00;4892952;29;20045;-86
2021/01/13 15:43:47;;;;;;;8.32;2.92;;;;;;;2.16;72.81;96505.91;4892839;29;20671;-87
2021/01/13 15:46:19;;;;;;;4.43;2.60;;;;;;;2.14;72.38;96510.34;4891267;29;20508;-90
2021/01/13 15:48:46;;;;;;;6.95;3.08;;;;;;;2.13;72.59;96498.44;4895176;23;20086;-78
2021/01/13 15:51:14;;;;;;;4.47;2.58;;;;;;;2.12;72.27;96499.41;4861714;29;20542;-78
2021/01/13 15:53:42;;;;;;;4.28;2.83;;;;;;;2.10;72.43;96485.03;4862321;29;20057;-78
2021/01/13 15:56:09;;;;;;;5.00;3.13;;;;;;;2.10;72.35;96487.59;4861984;29;20060;-78
2021/01/13 15:58:42;;;;;;;4.93;2.50;;;;;;;2.07;72.63;96478.38;4861417;29;20054;-78
2021/01/13 16:01:09;;;;;;;6.20;2.58;;;;;;;2.05;72.50;96468.22;4861215;29;20053;-78
2021/01/13 16:03:36;;;;;;;5.55;2.50;;;;;;;2.03;72.13;96479.59;4860338;29;20053;-78
2021/01/13 16:06:04;;;;;;;4.55;2.50;;;;;;;1.98;71.61;96469.69;4860887;29;20065;-78
2021/01/13 16:08:32;;;;;;;5.07;2.55;;;;;;;1.96;71.59;96466.44;4860689;29;20050;-78
2021/01/13 16:10:59;;;;;;;7.90;2.83;;;;;;;1.94;71.89;96463.19;4859789;29;20060;-78
2021/01/13 16:13:25;;;;;;;6.47;2.65;;;;;;;1.91;71.42;96468.59;4860552;29;20144;-79
2021/01/13 16:15:52;;;;;;;5.25;2.53;;;;;;;1.89;71.26;96461.97;4860623;29;20058;-78
2021/01/13 16:18:19;;;;;;;2.88;2.45;;;;;;;1.85;70.92;96458.84;4860695;29;20057;-79
2021/01/13 16:20:46;;;;;;;8.10;4.70;;;;;;;1.83;70.80;96456.38;4861088;29;20058;-78
2021/01/13 16:23:14;;;;;;;5.10;2.30;;;;;;;1.82;70.85;96461.69;4860547;29;20555;-78
2021/01/13 16:25:41;;;;;;;4.65;2.50;;;;;;;1.79;70.79;96461.91;4860448;29;20054;-79
2021/01/13 16:28:08;;;;;;;3.78;2.53;;;;;;;1.77;70.95;96458.66;4860577;29;20058;-78
2021/01/13 16:30:35;;;;;;;4.80;2.88;;;;;;;1.76;70.74;96457.06;4861227;29;20065;-78
2021/01/13 16:33:03;;;;;;;6.15;3.45;;;;;;;1.75;70.41;96457.97;4860972;29;20469;-79
2021/01/13 16:35:30;;;;;;;3.35;2.47;;;;;;;1.73;70.45;96459.88;4861097;29;20050;-79
2021/01/13 16:37:59;;;;;;;5.20;3.92;;;;;;;1.72;70.41;96460.81;4860854;29;20416;-77
2021/01/13 16:40:26;;;;;;;4.97;3.20;;;;;;;1.72;70.68;96450.53;4861316;29;20063;-76
2021/01/13 16:42:57;;;;;;;4.35;2.80;;;;;;;1.69;70.70;96438.75;4861772;29;20053;-78
2021/01/13 16:45:23;;;;;;;6.68;3.13;;;;;;;1.69;70.98;96427.66;4861597;29;20058;-78
2021/01/13 16:47:50;;;;;;;6.13;3.10;;;;;;;1.68;71.53;96428.59;4860833;29;20141;-77
2021/01/13 16:50:18;;;;;;;5.53;3.13;;;;;;;1.67;71.11;96424.41;4860437;29;20056;-78
2021/01/13 16:52:46;;;;;;;4.80;3.15;;;;;;;1.63;70.93;96419.50;4860544;29;20428;-78
2021/01/13 16:55:15;;;;;;;4.00;2.88;;;;;;;1.61;71.28;96411.13;4859855;29;20046;-78
2021/01/13 16:57:51;;;;;;;6.35;3.60;;;;;;;1.60;71.30;96417.22;4861124;29;20064;-79
2021/01/13 17:00:20;;;;;;;4.57;2.90;;;;;;;1.59;71.33;96415.56;4876831;29;20038;-80
2021/01/13 17:02:54;;;;;;;6.25;3.58;;;;;;;1.59;70.70;96410.44;4881411;29;20065;-78
2021/01/13 17:05:21;;;;;;;6.32;3.53;;;;;;;1.59;71.51;96407.84;4880724;29;20100;-80
2021/01/13 17:07:49;;;;;;;5.88;3.05;;;;;;;1.59;71.37;96409.63;4880870;29;20105;-79
2021/01/13 17:10:19;;;;;;;4.38;3.10;;;;;;;1.59;71.39;96407.06;4875411;29;20045;-79
2021/01/13 17:12:46;;;;;;;6.43;3.47;;;;;;;1.60;71.27;96406.94;4871906;29;20105;-79
2021/01/13 17:15:15;;;;;;;6.00;3.35;;;;;;;1.60;71.25;96400.97;4864267;29;20053;-79
2021/01/13 17:17:43;;;;;;;5.70;3.13;;;;;;;1.59;71.28;96404.47;4864097;29;20194;-79
2021/01/13 17:20:12;;;;;;;4.55;3.35;;;;;;;1.59;71.42;96401.91;4863383;29;20053;-79
2021/01/13 17:22:39;;;;;;;5.25;3.08;;;;;;;1.59;71.00;96395.00;4863707;29;20053;-79
2021/01/13 17:25:08;;;;;;;6.75;3.08;;;;;;;1.61;70.75;96398.25;4863198;29;20431;-79
2021/01/13 17:27:37;;;;;;;6.50;2.95;;;;;;;1.61;70.98;96395.69;4863516;29;20050;-78
2021/01/13 17:30:07;;;;;;;5.65;2.65;;;;;;;1.61;70.46;96395.69;4862767;29;20143;-78
2021/01/13 17:32:35;;;;;;;4.53;3.15;;;;;;;1.62;70.69;96392.19;4863305;29;20058;-79
2021/01/13 17:35:04;;;;;;;5.82;3.13;;;;;;;1.62;70.43;96384.47;4865186;29;20045;-79
2021/01/13 17:37:31;;;;;;;5.70;2.95;;;;;;;1.62;70.48;96379.34;4864251;29;20061;-79
2021/01/13 17:39:59;;;;;;;3.97;2.40;;;;;;;1.63;70.98;96370.66;4863750;29;20056;-79
2021/01/13 17:42:26;;;;;;;3.35;2.38;;;;;;;1.65;70.73;96379.06;4864238;29;20057;-79
2021/01/13 17:44:53;;;;;;;5.32;2.60;;;;;;;1.69;71.12;96373.66;4864469;29;20054;-79
2021/01/13 17:47:27;;;;;;;5.78;3.08;;;;;;;1.70;70.83;96365.00;4863978;29;20054;-79
2021/01/13 17:49:55;;;;;;;5.07;3.15;;;;;;;1.69;70.66;96371.09;4862810;29;20057;-79
2021/01/13 17:52:22;;;;;;;5.38;2.95;;;;;;;1.68;70.59;96362.56;4863485;29;20425;-78
2021/01/13 17:54:53;;;;;;;5.10;3.00;;;;;;;1.70;70.52;96367.56;4863705;29;20054;-79
2021/01/13 17:57:21;;;;;;;4.93;2.75;;;;;;;1.71;71.09;96371.78;4863864;29;20060;-78
2021/01/13 17:59:48;;;;;;;10.00;4.15;;;;;;;1.71;70.90;96367.44;4863121;29;20049;-78
2021/01/13 18:02:21;;;;;;;3.88;3.40;;;;;;;1.71;70.52;96356.34;4862862;29;20054;-79
2021/01/13 18:04:53;;;;;;;4.47;3.03;;;;;;;1.71;70.90;96358.94;4863353;29;20060;-79
2021/01/13 18:07:24;;;;;;;5.15;3.08;;;;;;;1.72;71.67;96366.47;4863558;29;20088;-79
2021/01/13 18:09:51;;;;;;;3.92;3.33;;;;;;;1.71;71.41;96366.63;4862569;29;20059;-78
2021/01/13 18:12:17;;;;;;;6.15;3.85;;;;;;;1.71;71.63;96353.78;4863883;29;20054;-79
2021/01/13 18:14:44;;;;;;;4.13;2.80;;;;;;;1.71;71.34;96335.78;4863038;29;20543;-79
2021/01/13 18:17:13;;;;;;;4.75;3.78;;;;;;;1.72;71.61;96340.78;4863433;29;20054;-79
2021/01/13 18:19:39;;;;;;;7.15;3.65;;;;;;;1.73;71.89;96333.88;4867784;29;20548;-79
2021/01/13 18:22:06;;;;;;;6.30;3.83;;;;;;;1.73;72.13;96339.00;4867532;29;20065;-79
2021/01/13 18:24:33;;;;;;;5.90;3.28;;;;;;;1.71;71.51;96330.63;4866723;29;20061;-78
2021/01/13 18:27:01;;;;;;;6.38;4.30;;;;;;;1.72;71.82;96332.25;4867629;29;20535;-79
2021/01/13 18:29:27;;;;;;;6.03;4.13;;;;;;;1.69;72.05;96317.91;4864420;29;20152;-79
2021/01/13 18:31:55;;;;;;;6.03;4.22;;;;;;;1.69;72.36;96328.19;4864460;29;20068;-81